Time,TemperatureF,DewpointF,PressureIn,WindDirection,WindDirectionDegrees,WindSpeedMPH,WindSpeedGustMPH,Humidity,HourlyPrecipIn,Conditions,Clouds,dailyrainin,SoftwareType,DateUTC
2013-04-29 00:01:00,55.1,52.7,29.86,SSE,158,4.3,6.0,92,0.00,,,0.00,WUHU216HW,2013-04-29 04:01:00,
2013-04-29 00:06:00,55.1,52.7,29.86,SSE,158,4.0,7.2,92,0.00,,,0.00,WUHU216HW,2013-04-29 04:06:00,
2013-04-29 00:11:00,55.1,52.7,29.86,SE,135,4.0,7.2,92,0.00,,,0.00,WUHU216HW,2013-04-29 04:11:00,
2013-04-29 00:16:00,55.1,52.7,29.86,South,180,6.0,6.9,92,0.00,,,0.00,WUHU216HW,2013-04-29 04:16:00,
2013-04-29 00:21:00,55.1,52.7,29.86,SSE,158,4.9,7.6,92,0.00,,,0.00,WUHU216HW,2013-04-29 04:21:00,
2013-04-29 00:26:00,55.3,52.9,29.86,SSW,203,4.9,7.6,92,0.00,,,0.00,WUHU216HW,2013-04-29 04:26:00,
2013-04-29 00:31:00,55.1,52.5,29.86,SSE,158,6.9,6.9,91,0.00,,,0.00,WUHU216HW,2013-04-29 04:31:00,
2013-04-29 00:36:00,55.1,52.5,29.86,SSE,158,5.6,6.9,91,0.00,,,0.00,WUHU216HW,2013-04-29 04:36:00,
2013-04-29 00:41:00,55.1,52.5,29.86,SSE,158,4.0,6.9,91,0.00,,,0.00,WUHU216HW,2013-04-29 04:41:00,
2013-04-29 00:46:00,55.1,52.5,29.86,SSE,158,3.4,5.8,91,0.00,,,0.00,WUHU216HW,2013-04-29 04:46:00,
2013-04-29 00:51:00,55.1,52.5,29.86,SSE,158,3.4,5.1,91,0.00,,,0.00,WUHU216HW,2013-04-29 04:51:00,
2013-04-29 00:56:00,55.1,52.5,29.85,SSE,158,3.6,6.0,91,0.00,,,0.00,WUHU216HW,2013-04-29 04:56:00,
2013-04-29 01:01:00,55.1,52.5,29.85,South,180,3.4,6.0,91,0.00,,,0.00,WUHU216HW,2013-04-29 05:01:00,
2013-04-29 01:06:00,54.9,52.3,29.85,SSW,203,2.0,5.8,91,0.00,,,0.00,WUHU216HW,2013-04-29 05:06:00,
2013-04-29 01:11:00,54.9,52.3,29.85,SSW,203,3.6,4.9,91,0.00,,,0.00,WUHU216HW,2013-04-29 05:11:00,
2013-04-29 01:16:00,54.9,52.3,29.85,South,180,3.1,5.4,91,0.00,,,0.00,WUHU216HW,2013-04-29 05:16:00,
2013-04-29 01:21:00,54.9,52.3,29.85,SSW,203,4.9,5.4,91,0.00,,,0.00,WUHU216HW,2013-04-29 05:21:00,
2013-04-29 01:27:00,54.7,52.1,29.85,SSW,203,2.5,4.9,91,0.00,,,0.00,WUHU216HW,2013-04-29 05:27:00,
2013-04-29 01:31:00,54.9,52.3,29.86,SW,225,3.4,4.9,91,0.00,,,0.00,WUHU216HW,2013-04-29 05:31:00,
2013-04-29 01:37:00,54.9,52.3,29.86,South,180,3.8,6.0,91,0.00,,,0.00,WUHU216HW,2013-04-29 05:37:00,
2013-04-29 01:42:00,54.9,52.3,29.86,SSW,203,3.4,6.0,91,0.00,,,0.00,WUHU216HW,2013-04-29 05:42:00,
2013-04-29 01:47:00,54.9,52.3,29.86,SSW,203,2.2,5.4,91,0.00,,,0.00,WUHU216HW,2013-04-29 05:47:00,
2013-04-29 01:52:00,54.9,52.3,29.86,WSW,248,1.6,5.4,91,0.00,,,0.00,WUHU216HW,2013-04-29 05:52:00,
2013-04-29 01:57:00,54.9,52.3,29.86,SSW,203,5.6,5.6,91,0.00,,,0.00,WUHU216HW,2013-04-29 05:57:00,
2013-04-29 02:02:00,54.9,52.3,29.86,SSW,203,2.7,5.8,91,0.00,,,0.00,WUHU216HW,2013-04-29 06:02:00,
2013-04-29 02:07:00,54.7,52.1,29.86,SW,225,3.8,5.8,91,0.00,,,0.00,WUHU216HW,2013-04-29 06:07:00,
2013-04-29 02:12:00,54.5,51.9,29.86,SW,225,4.7,5.8,91,0.00,,,0.00,WUHU216HW,2013-04-29 06:12:00,
2013-04-29 02:17:00,54.4,51.8,29.86,SSW,203,2.7,5.8,91,0.00,,,0.00,WUHU216HW,2013-04-29 06:17:00,
2013-04-29 02:22:00,54.4,51.8,29.86,SSW,203,3.8,5.1,91,0.00,,,0.00,WUHU216HW,2013-04-29 06:22:00,
2013-04-29 02:27:00,54.4,51.8,29.86,SW,225,2.5,5.4,91,0.00,,,0.00,WUHU216HW,2013-04-29 06:27:00,
2013-04-29 02:32:00,54.4,51.8,29.86,SW,225,3.1,5.4,91,0.00,,,0.00,WUHU216HW,2013-04-29 06:32:00,
2013-04-29 02:37:00,54.2,51.6,29.86,SW,225,2.0,4.0,91,0.00,,,0.00,WUHU216HW,2013-04-29 06:37:00,
2013-04-29 02:42:00,54.2,51.6,29.86,SW,225,3.1,4.0,91,0.00,,,0.00,WUHU216HW,2013-04-29 06:42:00,
2013-04-29 02:47:00,54.2,51.6,29.86,WSW,248,2.0,4.0,91,0.00,,,0.00,WUHU216HW,2013-04-29 06:47:00,
2013-04-29 02:52:00,54.2,51.6,29.86,SW,225,2.0,3.4,91,0.00,,,0.00,WUHU216HW,2013-04-29 06:52:00,
2013-04-29 02:57:00,54.2,51.6,29.86,WSW,248,2.0,3.4,91,0.00,,,0.00,WUHU216HW,2013-04-29 06:57:00,
2013-04-29 03:02:00,54.0,51.4,29.86,WSW,248,2.7,2.9,91,0.00,,,0.00,WUHU216HW,2013-04-29 07:02:00,
2013-04-29 03:07:00,54.0,51.7,29.86,WSW,248,3.4,4.7,92,0.00,,,0.00,WUHU216HW,2013-04-29 07:07:00,
2013-04-29 03:12:00,54.0,51.7,29.86,WSW,248,2.9,4.7,92,0.00,,,0.00,WUHU216HW,2013-04-29 07:12:00,
2013-04-29 03:17:00,54.0,51.7,29.86,WSW,248,1.8,4.7,92,0.00,,,0.00,WUHU216HW,2013-04-29 07:17:00,
2013-04-29 03:22:00,54.0,51.7,29.86,WSW,248,2.2,3.8,92,0.00,,,0.00,WUHU216HW,2013-04-29 07:22:00,
2013-04-29 03:27:00,54.0,51.7,29.86,WSW,248,1.8,3.8,92,0.00,,,0.00,WUHU216HW,2013-04-29 07:27:00,
2013-04-29 03:32:00,54.0,51.7,29.86,WSW,248,2.0,2.7,92,0.00,,,0.00,WUHU216HW,2013-04-29 07:32:00,
2013-04-29 03:37:00,53.8,51.5,29.86,SW,225,1.3,2.7,92,0.00,,,0.00,WUHU216HW,2013-04-29 07:37:00,
2013-04-29 03:42:00,53.8,51.5,29.86,SSW,203,1.8,2.9,92,0.00,,,0.00,WUHU216HW,2013-04-29 07:42:00,
2013-04-29 03:47:00,53.8,51.5,29.86,SW,225,2.0,2.9,92,0.00,,,0.00,WUHU216HW,2013-04-29 07:47:00,
2013-04-29 03:52:00,53.8,51.5,29.86,SW,225,1.3,2.9,92,0.00,,,0.00,WUHU216HW,2013-04-29 07:52:00,
2013-04-29 03:57:00,53.8,51.5,29.86,SW,225,1.1,2.5,92,0.00,,,0.00,WUHU216HW,2013-04-29 07:57:00,
2013-04-29 04:02:00,53.8,51.5,29.86,SW,225,2.0,2.5,92,0.00,,,0.00,WUHU216HW,2013-04-29 08:02:00,
2013-04-29 04:07:00,53.6,51.3,29.87,SW,225,1.8,2.5,92,0.00,,,0.00,WUHU216HW,2013-04-29 08:07:00,
2013-04-29 04:12:00,53.6,51.3,29.87,SW,225,0.9,3.6,92,0.00,,,0.00,WUHU216HW,2013-04-29 08:12:00,
2013-04-29 04:17:00,53.6,51.3,29.87,WSW,248,1.3,3.6,92,0.00,,,0.00,WUHU216HW,2013-04-29 08:17:00,
2013-04-29 04:22:00,53.6,51.3,29.88,WSW,248,1.3,1.8,92,0.00,,,0.00,WUHU216HW,2013-04-29 08:22:00,
2013-04-29 04:27:00,53.6,51.3,29.87,West,270,1.1,2.5,92,0.00,,,0.00,WUHU216HW,2013-04-29 08:27:00,
2013-04-29 04:32:00,53.6,51.3,29.87,WNW,293,2.5,2.9,92,0.00,,,0.00,WUHU216HW,2013-04-29 08:32:00,
2013-04-29 04:37:00,53.5,51.1,29.88,West,270,1.1,2.9,92,0.00,,,0.00,WUHU216HW,2013-04-29 08:37:00,
2013-04-29 04:42:00,53.5,51.1,29.88,West,270,1.1,2.9,92,0.00,,,0.00,WUHU216HW,2013-04-29 08:42:00,
2013-04-29 04:47:00,53.5,51.1,29.88,WSW,248,1.3,2.5,92,0.00,,,0.00,WUHU216HW,2013-04-29 08:47:00,
2013-04-29 04:52:00,53.6,51.3,29.88,WSW,248,1.1,2.0,92,0.00,,,0.00,WUHU216HW,2013-04-29 08:52:00,
2013-04-29 04:57:00,53.6,51.3,29.88,West,270,0.4,2.5,92,0.00,,,0.00,WUHU216HW,2013-04-29 08:57:00,
2013-04-29 05:02:00,53.6,51.3,29.88,West,270,2.5,2.5,92,0.00,,,0.00,WUHU216HW,2013-04-29 09:02:00,
2013-04-29 05:07:00,53.6,51.3,29.88,West,270,1.6,2.5,92,0.00,,,0.00,WUHU216HW,2013-04-29 09:07:00,
2013-04-29 05:12:00,53.6,51.3,29.88,West,270,0.7,2.5,92,0.00,,,0.00,WUHU216HW,2013-04-29 09:12:00,
2013-04-29 05:17:00,53.6,51.3,29.88,WSW,248,1.6,1.8,92,0.00,,,0.00,WUHU216HW,2013-04-29 09:17:00,
2013-04-29 05:22:00,53.6,51.3,29.88,WSW,248,0.9,1.8,92,0.00,,,0.00,WUHU216HW,2013-04-29 09:22:00,
2013-04-29 05:27:00,53.6,51.3,29.88,WSW,248,0.4,1.8,92,0.00,,,0.00,WUHU216HW,2013-04-29 09:27:00,
2013-04-29 05:32:00,53.6,51.3,29.88,WSW,248,0.9,1.3,92,0.00,,,0.00,WUHU216HW,2013-04-29 09:32:00,
2013-04-29 05:37:00,53.6,51.3,29.88,WSW,248,0.7,1.1,92,0.00,,,0.00,WUHU216HW,2013-04-29 09:37:00,
2013-04-29 05:42:00,53.6,51.3,29.89,WSW,248,1.1,2.0,92,0.00,,,0.00,WUHU216HW,2013-04-29 09:42:00,
2013-04-29 05:47:00,53.6,51.3,29.89,WSW,248,1.8,2.0,92,0.00,,,0.00,WUHU216HW,2013-04-29 09:47:00,
2013-04-29 05:52:00,53.6,51.3,29.89,SW,225,1.1,1.8,92,0.00,,,0.00,WUHU216HW,2013-04-29 09:52:00,
2013-04-29 05:57:00,53.6,51.3,29.89,WSW,248,1.3,1.8,92,0.00,,,0.00,WUHU216HW,2013-04-29 09:57:00,
2013-04-29 06:02:00,53.8,51.5,29.89,WSW,248,2.2,2.7,92,0.00,,,0.00,WUHU216HW,2013-04-29 10:02:00,
2013-04-29 06:07:00,53.6,51.3,29.89,West,270,1.8,2.7,92,0.00,,,0.00,WUHU216HW,2013-04-29 10:07:00,
2013-04-29 06:12:00,53.6,51.3,29.89,WNW,293,1.6,2.5,92,0.00,,,0.00,WUHU216HW,2013-04-29 10:12:00,
2013-04-29 06:17:00,53.6,51.3,29.89,WNW,293,1.3,2.5,92,0.00,,,0.00,WUHU216HW,2013-04-29 10:17:00,
2013-04-29 06:22:00,53.8,51.5,29.89,WNW,293,2.5,2.9,92,0.00,,,0.00,WUHU216HW,2013-04-29 10:22:00,
2013-04-29 06:27:00,53.8,51.9,29.90,WNW,293,3.1,3.4,93,0.00,,,0.00,WUHU216HW,2013-04-29 10:27:00,
2013-04-29 06:32:00,53.8,51.9,29.90,West,270,1.8,3.4,93,0.00,,,0.00,WUHU216HW,2013-04-29 10:32:00,
2013-04-29 06:37:00,54.0,52.0,29.90,West,270,2.5,3.8,93,0.00,,,0.00,WUHU216HW,2013-04-29 10:37:00,
2013-04-29 06:42:00,54.0,52.0,29.90,West,270,3.4,3.8,93,0.00,,,0.00,WUHU216HW,2013-04-29 10:42:00,
2013-04-29 06:47:00,54.0,52.0,29.91,West,270,1.3,3.4,93,0.00,,,0.00,WUHU216HW,2013-04-29 10:47:00,
2013-04-29 06:52:00,54.2,52.2,29.91,West,270,1.6,3.4,93,0.00,,,0.00,WUHU216HW,2013-04-29 10:52:00,
2013-04-29 06:57:00,54.2,52.2,29.91,West,270,2.2,3.6,93,0.00,,,0.00,WUHU216HW,2013-04-29 10:57:00,
2013-04-29 07:02:00,54.4,52.4,29.91,WSW,248,1.8,3.6,93,0.00,,,0.00,WUHU216HW,2013-04-29 11:02:00,
2013-04-29 07:07:00,54.4,52.4,29.91,WSW,248,0.0,2.5,93,0.00,,,0.00,WUHU216HW,2013-04-29 11:07:00,
2013-04-29 07:12:00,54.4,52.4,29.92,WSW,248,0.9,1.8,93,0.00,,,0.00,WUHU216HW,2013-04-29 11:12:00,
2013-04-29 07:17:00,54.4,52.4,29.92,WSW,248,1.3,2.5,93,0.00,,,0.00,WUHU216HW,2013-04-29 11:17:00,
2013-04-29 07:22:00,54.4,52.4,29.92,WSW,248,0.0,2.5,93,0.00,,,0.00,WUHU216HW,2013-04-29 11:22:00,
2013-04-29 07:27:00,54.5,52.2,29.92,SW,225,0.0,1.8,92,0.00,,,0.00,WUHU216HW,2013-04-29 11:27:00,
2013-04-29 07:32:00,54.5,52.2,29.92,WSW,248,1.1,1.6,92,0.00,,,0.00,WUHU216HW,2013-04-29 11:32:00,
2013-04-29 07:37:00,54.7,52.4,29.92,West,270,0.4,2.0,92,0.00,,,0.00,WUHU216HW,2013-04-29 11:37:00,
2013-04-29 07:42:00,54.7,52.4,29.92,West,270,1.3,2.5,92,0.00,,,0.00,WUHU216HW,2013-04-29 11:42:00,
2013-04-29 07:47:00,54.7,52.8,29.93,West,270,1.3,2.9,93,0.00,,,0.00,WUHU216HW,2013-04-29 11:47:00,
2013-04-29 07:52:00,54.7,52.8,29.93,WNW,293,2.2,2.9,93,0.00,,,0.00,WUHU216HW,2013-04-29 11:52:00,
2013-04-29 07:57:00,54.9,52.9,29.93,NW,315,2.5,2.9,93,0.00,,,0.00,WUHU216HW,2013-04-29 11:57:00,
2013-04-29 08:02:00,54.9,52.9,29.93,West,270,2.5,4.7,93,0.00,,,0.00,WUHU216HW,2013-04-29 12:02:00,
2013-04-29 08:07:00,54.9,52.9,29.93,WNW,293,3.6,4.7,93,0.00,,,0.00,WUHU216HW,2013-04-29 12:07:00,
2013-04-29 08:12:00,55.1,53.1,29.93,West,270,2.7,3.8,93,0.00,,,0.00,WUHU216HW,2013-04-29 12:12:00,
2013-04-29 08:17:00,55.1,52.7,29.93,West,270,2.5,4.5,92,0.00,,,0.00,WUHU216HW,2013-04-29 12:17:00,
2013-04-29 08:22:00,55.1,52.7,29.93,WNW,293,1.8,4.5,92,0.00,,,0.00,WUHU216HW,2013-04-29 12:22:00,
2013-04-29 08:27:00,55.3,52.9,29.93,WNW,293,2.0,2.5,92,0.00,,,0.00,WUHU216HW,2013-04-29 12:27:00,
2013-04-29 08:32:00,55.4,53.1,29.93,West,270,1.1,2.5,92,0.00,,,0.00,WUHU216HW,2013-04-29 12:32:00,
2013-04-29 08:37:00,55.6,53.3,29.94,West,270,2.9,2.9,92,0.00,,,0.00,WUHU216HW,2013-04-29 12:37:00,
2013-04-29 08:42:00,56.0,53.6,29.94,West,270,1.6,2.9,92,0.00,,,0.00,WUHU216HW,2013-04-29 12:42:00,
2013-04-29 08:47:00,56.2,53.8,29.94,WSW,248,1.1,2.9,92,0.00,,,0.00,WUHU216HW,2013-04-29 12:47:00,
2013-04-29 08:52:00,56.3,54.0,29.94,WSW,248,1.8,3.4,92,0.00,,,0.00,WUHU216HW,2013-04-29 12:52:00,
2013-04-29 08:57:00,56.7,54.4,29.94,WSW,248,2.5,3.4,92,0.00,,,0.00,WUHU216HW,2013-04-29 12:57:00,
2013-04-29 09:02:00,56.9,54.3,29.94,WSW,248,1.8,3.4,91,0.00,,,0.00,WUHU216HW,2013-04-29 13:02:00,
2013-04-29 09:07:00,57.2,54.6,29.94,WSW,248,2.7,4.0,91,0.00,,,0.00,WUHU216HW,2013-04-29 13:07:00,
2013-04-29 09:12:00,57.2,54.4,29.94,SW,225,1.3,4.5,90,0.00,,,0.00,WUHU216HW,2013-04-29 13:12:00,
2013-04-29 09:17:00,57.4,54.2,29.94,West,270,2.9,4.9,89,0.00,,,0.00,WUHU216HW,2013-04-29 13:17:00,
2013-04-29 09:22:00,57.6,54.4,29.94,West,270,3.1,5.4,89,0.00,,,0.00,WUHU216HW,2013-04-29 13:22:00,
2013-04-29 09:27:00,58.0,54.7,29.94,WSW,248,4.3,5.4,89,0.00,,,0.00,WUHU216HW,2013-04-29 13:27:00,
2013-04-29 09:32:00,58.1,54.9,29.94,WSW,248,3.1,4.7,89,0.00,,,0.00,WUHU216HW,2013-04-29 13:32:00,
2013-04-29 09:37:00,58.3,54.8,29.94,West,270,2.5,4.7,88,0.00,,,0.00,WUHU216HW,2013-04-29 13:37:00,
2013-04-29 09:42:00,58.7,55.2,29.94,WSW,248,4.9,6.5,88,0.00,,,0.00,WUHU216HW,2013-04-29 13:42:00,
2013-04-29 09:47:00,58.9,55.0,29.94,West,270,4.9,6.5,87,0.00,,,0.00,WUHU216HW,2013-04-29 13:47:00,
2013-04-29 09:52:00,59.4,55.3,29.94,West,270,2.5,6.3,86,0.00,,,0.00,WUHU216HW,2013-04-29 13:52:00,
2013-04-29 09:57:00,59.8,54.9,29.94,WNW,293,4.3,5.1,84,0.00,,,0.00,WUHU216HW,2013-04-29 13:57:00,
2013-04-29 10:02:00,59.4,54.3,29.94,NW,315,2.5,7.8,83,0.00,,,0.00,WUHU216HW,2013-04-29 14:02:00,
2013-04-29 10:07:00,59.4,54.5,29.94,WSW,248,4.7,7.8,84,0.00,,,0.00,WUHU216HW,2013-04-29 14:07:00,
2013-04-29 10:12:00,59.2,54.1,29.94,WNW,293,5.8,7.2,83,0.00,,,0.00,WUHU216HW,2013-04-29 14:12:00,
2013-04-29 10:17:00,58.7,52.2,29.95,West,270,7.4,12.1,79,0.00,,,0.00,WUHU216HW,2013-04-29 14:17:00,
2013-04-29 10:22:00,58.7,52.9,29.95,West,270,11.6,12.1,81,0.00,,,0.00,WUHU216HW,2013-04-29 14:22:00,
2013-04-29 10:27:00,58.3,52.2,29.95,WSW,248,12.8,13.2,80,0.00,,,0.00,WUHU216HW,2013-04-29 14:27:00,
2013-04-29 10:32:00,58.3,52.6,29.95,West,270,10.1,13.2,81,0.00,,,0.00,WUHU216HW,2013-04-29 14:32:00,
2013-04-29 10:37:00,58.3,52.8,29.96,WSW,248,5.6,12.8,82,0.00,,,0.00,WUHU216HW,2013-04-29 14:37:00,
2013-04-29 10:42:00,58.1,52.7,29.96,WNW,293,4.0,10.1,82,0.00,,,0.00,WUHU216HW,2013-04-29 14:42:00,
2013-04-29 10:47:00,58.0,52.5,29.96,WSW,248,2.5,8.9,82,0.00,,,0.00,WUHU216HW,2013-04-29 14:47:00,
2013-04-29 10:52:00,57.6,52.1,29.96,West,270,7.6,8.9,82,0.00,,,0.00,WUHU216HW,2013-04-29 14:52:00,
2013-04-29 10:57:00,57.4,52.3,29.96,WSW,248,4.9,8.1,83,0.00,,,0.00,WUHU216HW,2013-04-29 14:57:00,
2013-04-29 11:02:00,57.4,51.9,29.95,WSW,248,8.9,8.9,82,0.00,,,0.00,WUHU216HW,2013-04-29 15:02:00,
2013-04-29 11:07:00,57.6,52.1,29.95,WSW,248,3.8,8.9,82,0.00,,,0.00,WUHU216HW,2013-04-29 15:07:00,
2013-04-29 11:12:00,57.6,52.5,29.95,WNW,293,4.7,8.9,83,0.00,,,0.00,WUHU216HW,2013-04-29 15:12:00,
2013-04-29 11:17:00,57.6,52.5,29.96,WNW,293,4.3,7.2,83,0.00,,,0.00,WUHU216HW,2013-04-29 15:17:00,
2013-04-29 11:22:00,58.0,52.8,29.96,NW,315,3.6,7.2,83,0.00,,,0.00,WUHU216HW,2013-04-29 15:22:00,
2013-04-29 11:27:00,58.0,52.5,29.96,WNW,293,4.9,5.1,82,0.00,,,0.00,WUHU216HW,2013-04-29 15:27:00,
2013-04-29 11:32:00,58.3,52.6,29.96,WNW,293,4.3,5.6,81,0.00,,,0.00,WUHU216HW,2013-04-29 15:32:00,
2013-04-29 11:37:00,58.9,53.1,29.96,West,270,2.5,5.6,81,0.00,,,0.00,WUHU216HW,2013-04-29 15:37:00,
2013-04-29 11:42:00,59.2,53.1,29.96,NW,315,4.7,4.7,80,0.00,,,0.00,WUHU216HW,2013-04-29 15:42:00,
2013-04-29 11:47:00,59.4,52.9,29.96,WNW,293,2.0,5.8,79,0.00,,,0.00,WUHU216HW,2013-04-29 15:47:00,
2013-04-29 11:52:00,59.6,53.1,29.96,NW,315,4.0,6.7,79,0.00,,,0.00,WUHU216HW,2013-04-29 15:52:00,
2013-04-29 11:57:00,59.9,52.7,29.96,WSW,248,4.0,6.7,77,0.00,,,0.00,WUHU216HW,2013-04-29 15:57:00,
2013-04-29 12:02:00,60.3,53.1,29.96,WNW,293,1.8,5.8,77,0.00,,,0.00,WUHU216HW,2013-04-29 16:02:00,
2013-04-29 12:07:00,61.4,53.4,29.96,WNW,293,2.5,4.7,75,0.00,,,0.00,WUHU216HW,2013-04-29 16:07:00,
2013-04-29 12:12:00,61.9,53.6,29.96,NW,315,2.2,4.0,74,0.00,,,0.00,WUHU216HW,2013-04-29 16:12:00,
2013-04-29 12:17:00,62.1,53.4,29.96,NW,315,2.2,4.3,73,0.00,,,0.00,WUHU216HW,2013-04-29 16:17:00,
2013-04-29 12:22:00,62.1,53.0,29.96,WNW,293,3.4,4.3,72,0.00,,,0.00,WUHU216HW,2013-04-29 16:22:00,
2013-04-29 12:27:00,62.3,53.5,29.96,NNW,338,2.7,4.0,73,0.00,,,0.00,WUHU216HW,2013-04-29 16:27:00,
2013-04-29 12:32:00,62.3,53.1,29.96,NW,315,3.4,4.0,72,0.00,,,0.00,WUHU216HW,2013-04-29 16:32:00,
2013-04-29 12:37:00,62.1,53.4,29.96,WNW,293,3.1,4.7,73,0.00,,,0.00,WUHU216HW,2013-04-29 16:37:00,
2013-04-29 12:42:00,62.1,53.0,29.95,ESE,113,1.3,4.7,72,0.00,,,0.00,WUHU216HW,2013-04-29 16:42:00,
2013-04-29 12:47:00,62.3,53.1,29.95,NW,315,1.1,4.0,72,0.00,,,0.00,WUHU216HW,2013-04-29 16:47:00,
2013-04-29 12:52:00,63.0,54.2,29.95,WSW,248,4.7,4.7,73,0.00,,,0.00,WUHU216HW,2013-04-29 16:52:00,
2013-04-29 12:57:00,63.2,53.3,29.95,WSW,248,2.5,4.7,70,0.00,,,0.00,WUHU216HW,2013-04-29 16:57:00,
2013-04-29 13:02:00,63.4,53.5,29.95,WNW,293,1.8,6.5,70,0.00,,,0.00,WUHU216HW,2013-04-29 17:02:00,
2013-04-29 13:07:00,63.5,54.0,29.95,South,180,2.9,6.5,71,0.00,,,0.00,WUHU216HW,2013-04-29 17:07:00,
2013-04-29 13:12:00,64.1,54.2,29.95,SW,225,0.9,4.5,70,0.00,,,0.00,WUHU216HW,2013-04-29 17:12:00,
2013-04-29 13:17:00,64.3,54.4,29.95,West,270,1.8,3.4,70,0.00,,,0.00,WUHU216HW,2013-04-29 17:17:00,
2013-04-29 13:22:00,64.1,53.3,29.95,WNW,293,2.2,4.7,68,0.00,,,0.00,WUHU216HW,2013-04-29 17:22:00,
2013-04-29 13:27:00,64.1,53.3,29.95,ENE,68,1.8,4.7,68,0.00,,,0.00,WUHU216HW,2013-04-29 17:27:00,
2013-04-29 13:32:00,64.4,53.6,29.95,SW,225,2.5,4.7,68,0.00,,,0.00,WUHU216HW,2013-04-29 17:32:00,
2013-04-29 13:37:00,64.4,53.3,29.95,SW,225,1.1,5.8,67,0.00,,,0.00,WUHU216HW,2013-04-29 17:37:00,
2013-04-29 13:42:00,65.2,53.5,29.95,ESE,113,1.1,5.8,66,0.00,,,0.00,WUHU216HW,2013-04-29 17:42:00,
2013-04-29 13:47:00,65.2,53.1,29.95,WSW,248,3.8,5.6,65,0.00,,,0.00,WUHU216HW,2013-04-29 17:47:00,
2013-04-29 13:52:00,64.8,53.2,29.96,WSW,248,5.1,7.6,66,0.00,,,0.00,WUHU216HW,2013-04-29 17:52:00,
2013-04-29 13:57:00,64.8,53.2,29.96,SW,225,2.5,7.6,66,0.00,,,0.00,WUHU216HW,2013-04-29 17:57:00,
2013-04-29 14:02:00,65.2,53.5,29.95,SSW,203,6.5,6.5,66,0.00,,,0.00,WUHU216HW,2013-04-29 18:02:00,
2013-04-29 14:07:00,65.3,53.6,29.95,SSW,203,2.5,6.5,66,0.00,,,0.00,WUHU216HW,2013-04-29 18:07:00,
2013-04-29 14:12:00,66.1,53.9,29.95,WNW,293,1.1,6.5,65,0.00,,,0.00,WUHU216HW,2013-04-29 18:12:00,
2013-04-29 14:17:00,66.2,54.1,29.95,WSW,248,1.8,6.3,65,0.00,,,0.00,WUHU216HW,2013-04-29 18:17:00,
2013-04-29 14:22:00,66.8,54.2,29.95,SW,225,1.6,4.7,64,0.00,,,0.00,WUHU216HW,2013-04-29 18:22:00,
2013-04-29 14:27:00,66.8,52.9,29.95,West,270,3.4,4.5,61,0.00,,,0.00,WUHU216HW,2013-04-29 18:27:00,
2013-04-29 14:32:00,67.1,54.1,29.95,South,180,3.8,4.5,63,0.00,,,0.00,WUHU216HW,2013-04-29 18:32:00,
2013-04-29 14:37:00,67.1,51.8,29.95,West,270,1.6,6.3,58,0.00,,,0.00,WUHU216HW,2013-04-29 18:37:00,
2013-04-29 14:42:00,67.0,52.7,29.95,NW,315,4.7,6.3,60,0.00,,,0.00,WUHU216HW,2013-04-29 18:42:00,
2013-04-29 14:47:00,67.0,53.1,29.95,SSW,203,0.2,6.3,61,0.00,,,0.00,WUHU216HW,2013-04-29 18:47:00,
2013-04-29 14:52:00,67.1,52.8,29.95,SW,225,4.0,8.7,60,0.00,,,0.00,WUHU216HW,2013-04-29 18:52:00,
2013-04-29 14:57:00,67.1,53.6,29.95,SW,225,7.4,8.7,62,0.00,,,0.00,WUHU216HW,2013-04-29 18:57:00,
2013-04-29 15:02:00,67.1,54.6,29.95,SSW,203,5.4,7.4,64,0.00,,,0.00,WUHU216HW,2013-04-29 19:02:00,
2013-04-29 15:07:00,67.3,54.7,29.95,SSW,203,5.4,9.4,64,0.00,,,0.00,WUHU216HW,2013-04-29 19:07:00,
2013-04-29 15:12:00,67.5,54.9,29.95,WSW,248,5.4,9.4,64,0.00,,,0.00,WUHU216HW,2013-04-29 19:12:00,
2013-04-29 15:17:00,67.9,54.8,29.95,South,180,8.3,10.5,63,0.00,,,0.00,WUHU216HW,2013-04-29 19:17:00,
2013-04-29 15:22:00,67.9,54.4,29.94,SSW,203,10.7,11.4,62,0.00,,,0.00,WUHU216HW,2013-04-29 19:22:00,
2013-04-29 15:27:00,67.7,55.0,29.94,SW,225,4.7,11.4,64,0.00,,,0.00,WUHU216HW,2013-04-29 19:27:00,
2013-04-29 15:32:00,68.0,54.6,29.94,South,180,10.5,10.7,62,0.00,,,0.00,WUHU216HW,2013-04-29 19:32:00,
2013-04-29 15:37:00,68.9,55.4,29.94,SSW,203,8.9,10.5,62,0.00,,,0.00,WUHU216HW,2013-04-29 19:37:00,
2013-04-29 15:42:00,69.7,55.3,29.93,SSW,203,6.9,10.5,60,0.00,,,0.00,WUHU216HW,2013-04-29 19:42:00,
2013-04-29 15:47:00,70.2,55.3,29.93,South,180,6.5,8.9,59,0.00,,,0.00,WUHU216HW,2013-04-29 19:47:00,
2013-04-29 15:52:00,70.9,56.4,29.93,SSW,203,4.3,6.9,60,0.00,,,0.00,WUHU216HW,2013-04-29 19:52:00,
2013-04-29 15:57:00,70.9,55.5,29.93,SW,225,6.9,7.6,58,0.00,,,0.00,WUHU216HW,2013-04-29 19:57:00,
2013-04-29 16:02:00,70.7,55.7,29.93,SSE,158,2.5,7.6,59,0.00,,,0.00,WUHU216HW,2013-04-29 20:02:00,
2013-04-29 16:07:00,70.0,54.6,29.93,SSW,203,6.5,6.5,58,0.00,,,0.00,WUHU216HW,2013-04-29 20:07:00,
2013-04-29 16:12:00,69.7,54.7,29.93,SSW,203,6.5,7.6,59,0.00,,,0.00,WUHU216HW,2013-04-29 20:12:00,
2013-04-29 16:17:00,68.9,54.5,29.93,WSW,248,7.8,8.5,60,0.00,,,0.00,WUHU216HW,2013-04-29 20:17:00,
2013-04-29 16:22:00,69.5,55.1,29.93,SW,225,7.4,9.8,60,0.00,,,0.00,WUHU216HW,2013-04-29 20:22:00,
2013-04-29 16:27:00,69.8,55.4,29.93,SW,225,4.3,9.8,60,0.00,,,0.00,WUHU216HW,2013-04-29 20:27:00,
2013-04-29 16:32:00,69.5,54.5,29.93,SW,225,6.5,9.4,59,0.00,,,0.00,WUHU216HW,2013-04-29 20:32:00,
2013-04-29 16:37:00,69.1,54.7,29.93,SW,225,5.8,9.4,60,0.00,,,0.00,WUHU216HW,2013-04-29 20:37:00,
2013-04-29 16:42:00,69.5,55.1,29.93,South,180,7.6,10.5,60,0.00,,,0.00,WUHU216HW,2013-04-29 20:42:00,
2013-04-29 16:47:00,69.7,54.7,29.93,SW,225,8.5,10.7,59,0.00,,,0.00,WUHU216HW,2013-04-29 20:47:00,
2013-04-29 16:52:00,69.5,55.1,29.93,South,180,6.3,10.7,60,0.00,,,0.00,WUHU216HW,2013-04-29 20:52:00,
2013-04-29 16:57:00,69.5,55.1,29.93,South,180,4.9,10.3,60,0.00,,,0.00,WUHU216HW,2013-04-29 20:57:00,
2013-04-29 17:02:00,69.5,54.5,29.93,SE,135,4.9,11.4,59,0.00,,,0.00,WUHU216HW,2013-04-29 21:02:00,
2013-04-29 17:07:00,69.8,54.9,29.93,South,180,8.7,11.4,59,0.00,,,0.00,WUHU216HW,2013-04-29 21:07:00,
2013-04-29 17:12:00,70.2,55.3,29.93,South,180,3.8,9.2,59,0.00,,,0.00,WUHU216HW,2013-04-29 21:12:00,
2013-04-29 17:17:00,70.2,54.3,29.93,SSE,158,7.8,9.2,57,0.00,,,0.00,WUHU216HW,2013-04-29 21:17:00,
2013-04-29 17:22:00,69.8,53.9,29.93,South,180,5.4,9.6,57,0.00,,,0.00,WUHU216HW,2013-04-29 21:22:00,
2013-04-29 17:27:00,69.8,54.5,29.93,SSW,203,6.9,9.6,58,0.00,,,0.00,WUHU216HW,2013-04-29 21:27:00,
2013-04-29 17:32:00,70.0,54.1,29.93,SSW,203,8.3,9.4,57,0.00,,,0.00,WUHU216HW,2013-04-29 21:32:00,
2013-04-29 17:37:00,70.0,54.6,29.93,South,180,4.9,8.3,58,0.00,,,0.00,WUHU216HW,2013-04-29 21:37:00,
2013-04-29 17:42:00,69.8,54.5,29.93,South,180,7.2,9.2,58,0.00,,,0.00,WUHU216HW,2013-04-29 21:42:00,
2013-04-29 17:47:00,69.5,54.1,29.94,South,180,6.5,9.8,58,0.00,,,0.00,WUHU216HW,2013-04-29 21:47:00,
2013-04-29 17:52:00,69.3,53.9,29.94,SSW,203,9.6,9.8,58,0.00,,,0.00,WUHU216HW,2013-04-29 21:52:00,
2013-04-29 17:57:00,68.9,54.5,29.94,SSW,203,9.6,11.4,60,0.00,,,0.00,WUHU216HW,2013-04-29 21:57:00,
2013-04-29 18:02:00,68.8,54.4,29.94,SSE,158,5.1,11.4,60,0.00,,,0.00,WUHU216HW,2013-04-29 22:02:00,
2013-04-29 18:07:00,68.9,54.5,29.94,SSW,203,5.4,9.6,60,0.00,,,0.00,WUHU216HW,2013-04-29 22:07:00,
2013-04-29 18:12:00,68.8,54.4,29.94,South,180,8.5,10.5,60,0.00,,,0.00,WUHU216HW,2013-04-29 22:12:00,
2013-04-29 18:17:00,68.4,54.0,29.94,South,180,8.1,10.5,60,0.00,,,0.00,WUHU216HW,2013-04-29 22:17:00,
2013-04-29 18:22:00,68.2,54.3,29.94,SSE,158,9.2,10.1,61,0.00,,,0.00,WUHU216HW,2013-04-29 22:22:00,
2013-04-29 18:27:00,68.2,53.8,29.94,South,180,10.1,12.1,60,0.00,,,0.00,WUHU216HW,2013-04-29 22:27:00,
2013-04-29 18:32:00,68.0,53.6,29.94,SE,135,6.3,12.1,60,0.00,,,0.00,WUHU216HW,2013-04-29 22:32:00,
2013-04-29 18:37:00,68.0,53.6,29.94,South,180,6.9,12.1,60,0.00,,,0.00,WUHU216HW,2013-04-29 22:37:00,
2013-04-29 18:42:00,67.9,53.5,29.94,South,180,10.3,10.3,60,0.00,,,0.00,WUHU216HW,2013-04-29 22:42:00,
2013-04-29 18:47:00,67.7,54.2,29.94,South,180,10.5,10.5,62,0.00,,,0.00,WUHU216HW,2013-04-29 22:47:00,
2013-04-29 18:52:00,67.5,54.0,29.94,SSW,203,7.8,10.5,62,0.00,,,0.00,WUHU216HW,2013-04-29 22:52:00,
2013-04-29 18:57:00,67.3,54.3,29.94,South,180,6.5,9.4,63,0.00,,,0.00,WUHU216HW,2013-04-29 22:57:00,
2013-04-29 19:02:00,67.1,54.1,29.94,SSE,158,4.7,8.5,63,0.00,,,0.00,WUHU216HW,2013-04-29 23:02:00,
2013-04-29 19:07:00,67.0,53.9,29.94,SSE,158,7.2,10.3,63,0.00,,,0.00,WUHU216HW,2013-04-29 23:07:00,
2013-04-29 19:12:00,66.8,54.6,29.94,South,180,5.6,10.3,65,0.00,,,0.00,WUHU216HW,2013-04-29 23:12:00,
2013-04-29 19:17:00,66.2,54.1,29.94,SSE,158,9.8,10.1,65,0.00,,,0.00,WUHU216HW,2013-04-29 23:17:00,
2013-04-29 19:22:00,65.9,54.2,29.94,SSE,158,7.6,10.3,66,0.00,,,0.00,WUHU216HW,2013-04-29 23:22:00,
2013-04-29 19:27:00,65.5,53.8,29.94,SSE,158,7.4,10.3,66,0.00,,,0.00,WUHU216HW,2013-04-29 23:27:00,
2013-04-29 19:32:00,65.3,54.1,29.94,SSE,158,6.9,9.6,67,0.00,,,0.00,WUHU216HW,2013-04-29 23:32:00,
2013-04-29 19:37:00,65.2,53.9,29.94,SSE,158,7.4,9.8,67,0.00,,,0.00,WUHU216HW,2013-04-29 23:37:00,
2013-04-29 19:42:00,65.0,54.2,29.94,SSE,158,9.6,12.1,68,0.00,,,0.00,WUHU216HW,2013-04-29 23:42:00,
2013-04-29 19:47:00,64.8,54.0,29.94,SE,135,6.0,12.1,68,0.00,,,0.00,WUHU216HW,2013-04-29 23:47:00,
2013-04-29 19:52:00,65.5,54.6,29.94,SSE,158,7.4,9.2,68,0.00,,,0.00,WUHU216HW,2013-04-29 23:52:00,
2013-04-29 19:57:00,65.2,53.9,29.94,SSE,158,8.1,10.1,67,0.00,,,0.00,WUHU216HW,2013-04-29 23:57:00,
2013-04-29 20:02:00,64.4,53.6,29.94,South,180,5.4,10.1,68,0.00,,,0.00,WUHU216HW,2013-04-30 00:02:00,
2013-04-29 20:07:00,64.1,53.3,29.94,South,180,5.8,8.3,68,0.00,,,0.00,WUHU216HW,2013-04-30 00:07:00,
2013-04-29 20:12:00,63.7,53.4,29.94,SE,135,4.9,7.6,69,0.00,,,0.00,WUHU216HW,2013-04-30 00:12:00,
2013-04-29 20:17:00,63.2,53.3,29.94,SSW,203,7.6,9.2,70,0.00,,,0.00,WUHU216HW,2013-04-30 00:17:00,
2013-04-29 20:22:00,63.0,53.5,29.94,SSE,158,9.6,9.6,71,0.00,,,0.00,WUHU216HW,2013-04-30 00:22:00,
2013-04-29 20:27:00,62.6,52.7,29.95,SSW,203,9.4,11.0,70,0.00,,,0.00,WUHU216HW,2013-04-30 00:27:00,
2013-04-29 20:32:00,62.1,52.3,29.95,SSW,203,3.8,11.0,70,0.00,,,0.00,WUHU216HW,2013-04-30 00:32:00,
2013-04-29 20:37:00,61.7,51.5,29.95,SSE,158,3.4,9.4,69,0.00,,,0.00,WUHU216HW,2013-04-30 00:37:00,
2013-04-29 20:42:00,61.4,51.6,29.95,SSE,158,4.7,7.2,70,0.00,,,0.00,WUHU216HW,2013-04-30 00:42:00,
2013-04-29 20:47:00,61.2,51.9,29.95,South,180,3.8,6.3,71,0.00,,,0.00,WUHU216HW,2013-04-30 00:47:00,
2013-04-29 20:52:00,61.0,51.7,29.95,SSW,203,3.1,5.8,71,0.00,,,0.00,WUHU216HW,2013-04-30 00:52:00,
2013-04-29 20:57:00,60.8,51.8,29.95,SSE,158,3.6,5.8,72,0.00,,,0.00,WUHU216HW,2013-04-30 00:57:00,
2013-04-29 21:02:00,60.7,51.7,29.96,SSE,158,3.6,5.8,72,0.00,,,0.00,WUHU216HW,2013-04-30 01:02:00,
2013-04-29 21:07:00,60.5,51.8,29.96,SSE,158,5.1,6.0,73,0.00,,,0.00,WUHU216HW,2013-04-30 01:07:00,
2013-04-29 21:12:00,60.1,51.5,29.96,SSE,158,3.6,6.3,73,0.00,,,0.00,WUHU216HW,2013-04-30 01:12:00,
2013-04-29 21:17:00,59.8,51.1,29.96,SSE,158,3.6,6.3,73,0.00,,,0.00,WUHU216HW,2013-04-30 01:17:00,
2013-04-29 21:22:00,59.4,51.5,29.96,SE,135,4.9,6.7,75,0.00,,,0.00,WUHU216HW,2013-04-30 01:22:00,
2013-04-29 21:27:00,59.2,51.3,29.96,SE,135,5.1,6.7,75,0.00,,,0.00,WUHU216HW,2013-04-30 01:27:00,
2013-04-29 21:32:00,58.9,50.9,29.96,SSE,158,6.3,6.7,75,0.00,,,0.00,WUHU216HW,2013-04-30 01:32:00,
2013-04-29 21:37:00,58.7,50.8,29.96,SSE,158,6.7,7.6,75,0.00,,,0.00,WUHU216HW,2013-04-30 01:37:00,
2013-04-29 21:42:00,58.5,50.9,29.96,SE,135,8.7,8.7,76,0.00,,,0.00,WUHU216HW,2013-04-30 01:42:00,
2013-04-29 21:47:00,58.3,51.1,29.96,SE,135,4.9,8.7,77,0.00,,,0.00,WUHU216HW,2013-04-30 01:47:00,
2013-04-29 21:52:00,58.1,50.9,29.96,SE,135,10.1,10.1,77,0.00,,,0.00,WUHU216HW,2013-04-30 01:52:00,
2013-04-29 21:57:00,58.0,50.8,29.96,SSE,158,6.3,10.1,77,0.00,,,0.00,WUHU216HW,2013-04-30 01:57:00,
2013-04-29 22:02:00,58.0,50.8,29.96,SE,135,8.5,10.1,77,0.00,,,0.00,WUHU216HW,2013-04-30 02:02:00,
2013-04-29 22:07:00,58.0,50.8,29.96,SSE,158,6.0,9.8,77,0.00,,,0.00,WUHU216HW,2013-04-30 02:07:00,
2013-04-29 22:12:00,58.0,50.8,29.96,SSE,158,6.7,9.4,77,0.00,,,0.00,WUHU216HW,2013-04-30 02:12:00,
2013-04-29 22:17:00,58.0,50.8,29.96,SSE,158,4.7,9.6,77,0.00,,,0.00,WUHU216HW,2013-04-30 02:17:00,
2013-04-29 22:22:00,58.0,50.8,29.97,SSE,158,7.6,9.6,77,0.00,,,0.00,WUHU216HW,2013-04-30 02:22:00,
2013-04-29 22:27:00,58.0,50.8,29.97,SSE,158,6.0,9.2,77,0.00,,,0.00,WUHU216HW,2013-04-30 02:27:00,
2013-04-29 22:32:00,57.8,50.2,29.97,SE,135,5.4,9.2,76,0.00,,,0.00,WUHU216HW,2013-04-30 02:32:00,
2013-04-29 22:37:00,57.6,50.4,29.97,SSE,158,8.5,9.8,77,0.00,,,0.00,WUHU216HW,2013-04-30 02:37:00,
2013-04-29 22:42:00,57.6,50.4,29.97,SSE,158,6.3,10.1,77,0.00,,,0.00,WUHU216HW,2013-04-30 02:42:00,
2013-04-29 22:47:00,57.4,50.2,29.97,SE,135,7.2,10.3,77,0.00,,,0.00,WUHU216HW,2013-04-30 02:47:00,
2013-04-29 22:52:00,57.2,50.0,29.97,SSE,158,6.9,10.3,77,0.00,,,0.00,WUHU216HW,2013-04-30 02:52:00,
2013-04-29 22:57:00,57.2,50.0,29.97,SSE,158,6.7,8.3,77,0.00,,,0.00,WUHU216HW,2013-04-30 02:57:00,
2013-04-29 23:02:00,57.2,50.0,29.97,South,180,7.8,9.8,77,0.00,,,0.00,WUHU216HW,2013-04-30 03:02:00,
2013-04-29 23:07:00,57.2,50.0,29.97,SSE,158,7.2,9.8,77,0.00,,,0.00,WUHU216HW,2013-04-30 03:07:00,
2013-04-29 23:12:00,57.1,49.9,29.97,SSE,158,7.6,8.1,77,0.00,,,0.00,WUHU216HW,2013-04-30 03:12:00,
2013-04-29 23:17:00,57.1,50.2,29.97,South,180,5.4,8.7,78,0.00,,,0.00,WUHU216HW,2013-04-30 03:17:00,
2013-04-29 23:22:00,56.9,50.0,29.98,SSE,158,6.3,8.7,78,0.00,,,0.00,WUHU216HW,2013-04-30 03:22:00,
2013-04-29 23:27:00,56.5,49.7,29.98,South,180,4.3,7.6,78,0.00,,,0.00,WUHU216HW,2013-04-30 03:27:00,
2013-04-29 23:32:00,56.5,50.0,29.98,South,180,5.8,6.9,79,0.00,,,0.00,WUHU216HW,2013-04-30 03:32:00,
2013-04-29 23:37:00,56.3,49.9,29.98,SSW,203,6.0,6.3,79,0.00,,,0.00,WUHU216HW,2013-04-30 03:37:00,
2013-04-29 23:42:00,56.2,49.7,29.98,SSE,158,4.9,7.4,79,0.00,,,0.00,WUHU216HW,2013-04-30 03:42:00,
2013-04-29 23:47:00,56.0,49.5,29.98,SSE,158,2.5,7.4,79,0.00,,,0.00,WUHU216HW,2013-04-30 03:47:00,
2013-04-29 23:52:00,56.0,49.5,29.98,SSE,158,6.0,6.9,79,0.00,,,0.00,WUHU216HW,2013-04-30 03:52:00,
2013-04-29 23:57:00,56.0,49.9,29.98,SSE,158,3.4,7.6,80,0.00,,,0.00,WUHU216HW,2013-04-30 03:57:00,